Time;durP1;ratioP1;P1;durP2;ratioP2;P2;SDS_P1;SDS_P2;PMS_P1;PMS_P2;Temp;Humidity;BMP_temperature;BMP_pressure;BME280_temperature;BME280_humidity;BME280_pressure;Samples;Min_cycle;Max_cycle;Signal;HPM_P1;HPM_P2
2022/10/18 00:02:33;;;;;;;;;;;;;;;;;;10545506;28;19924;-60
2022/10/18 00:07:35;;;;;;;;;;;;;;;;;;10539590;28;19931;-61
2022/10/18 00:12:37;;;;;;;;;;;;;;;;;;10540401;28;19928;-61
2022/10/18 00:17:39;;;;;;;;;;;;;;;;;;10540196;28;20023;-60
2022/10/18 00:22:41;;;;;;;;;;;;;;;;;;10540353;28;19924;-60
2022/10/18 00:27:43;;;;;;;;;;;;;;;;;;10539788;28;19924;-61
2022/10/18 00:32:45;;;;;;;;;;;;;;;;;;10538932;28;19990;-61
2022/10/18 00:37:47;;;;;;;;;;;;;;;;;;10539351;28;20403;-60
2022/10/18 00:42:49;;;;;;;;;;;;;;;;;;10539996;28;19999;-60
2022/10/18 00:47:52;;;;;;;;;;;;;;;;;;10507441;22;20395;-61
2022/10/18 00:52:54;;;;;;;;;;;;;;;;;;10467075;28;20368;-61
2022/10/18 00:57:56;;;;;;;;;;;;;;;;;;10455894;28;20383;-60
2022/10/18 01:02:58;;;;;;;;;;;;;;;;;;10456468;28;19929;-60
2022/10/18 01:08:00;;;;;;;;;;;;;;;;;;10455743;28;20257;-60
2022/10/18 01:13:02;;;;;;;;;;;;;;;;;;10456236;28;19924;-61
2022/10/18 01:18:04;;;;;;;;;;;;;;;;;;10455523;28;19925;-60
2022/10/18 01:23:06;;;;;;;;;;;;;;;;;;10462037;28;20384;-60
2022/10/18 01:28:08;;;;;;;;;;;;;;;;;;10462840;28;20297;-60
2022/10/18 01:33:10;;;;;;;;;;;;;;;;;;10463277;28;19929;-61
2022/10/18 01:38:13;;;;;;;;;;;;;;;;;;10463006;28;19925;-61
2022/10/18 01:43:15;;;;;;;;;;;;;;;;;;10462229;28;20379;-61
2022/10/18 01:48:17;;;;;;;;;;;;;;;;;;10462200;28;19925;-61
2022/10/18 01:53:19;;;;;;;;;;;;;;;;;;10462513;28;19929;-61
2022/10/18 01:58:21;;;;;;;;;;;;;;;;;;10461626;28;19924;-60
2022/10/18 02:03:23;;;;;;;;;;;;;;;;;;10462113;28;19974;-60
2022/10/18 02:08:25;;;;;;;;;;;;;;;;;;10461351;28;19978;-61
2022/10/18 02:13:27;;;;;;;;;;;;;;;;;;10461713;28;19925;-61
2022/10/18 02:18:29;;;;;;;;;;;;;;;;;;10460861;28;20364;-60
2022/10/18 02:23:31;;;;;;;;;;;;;;;;;;10460722;28;19925;-60
2022/10/18 02:28:33;;;;;;;;;;;;;;;;;;10460534;28;19924;-60
2022/10/18 02:33:35;;;;;;;;;;;;;;;;;;10460279;28;19928;-60
2022/10/18 02:38:37;;;;;;;;;;;;;;;;;;10460687;28;19924;-60
2022/10/18 02:43:39;;;;;;;;;;;;;;;;;;10459941;28;20376;-61
2022/10/18 02:48:41;;;;;;;;;;;;;;;;;;10459838;28;19925;-61
2022/10/18 02:53:43;;;;;;;;;;;;;;;;;;10460165;28;20039;-60
2022/10/18 02:58:45;;;;;;;;;;;;;;;;;;10459624;28;19954;-60
2022/10/18 03:03:47;;;;;;;;;;;;;;;;;;10459763;28;19925;-61
2022/10/18 03:08:49;;;;;;;;;;;;;;;;;;10459564;28;19925;-60
2022/10/18 03:13:51;;;;;;;;;;;;;;;;;;10458681;28;20288;-60
2022/10/18 03:18:53;;;;;;;;;;;;;;;;;;10459518;28;19929;-60
2022/10/18 03:23:57;;;;;;;;;;;;;;;;;;10458964;28;19955;-60
2022/10/18 03:28:59;;;;;;;;;;;;;;;;;;10458122;28;19929;-60
2022/10/18 03:34:01;;;;;;;;;;;;;;;;;;10457914;28;19924;-61
2022/10/18 03:39:03;;;;;;;;;;;;;;;;;;10458455;28;19925;-61
2022/10/18 03:44:05;;;;;;;;;;;;;;;;;;10456675;28;20073;-60
2022/10/18 03:49:07;;;;;;;;;;;;;;;;;;10457478;28;19955;-60
2022/10/18 03:54:09;;;;;;;;;;;;;;;;;;10457206;28;20388;-60
2022/10/18 03:59:11;;;;;;;;;;;;;;;;;;10457170;28;19971;-60
2022/10/18 04:04:13;;;;;;;;;;;;;;;;;;10456995;28;20323;-61
2022/10/18 04:09:15;;;;;;;;;;;;;;;;;;10456873;28;20368;-60
2022/10/18 04:14:20;;;;;;;;;;;;;;;;;;10457333;28;19929;-60
2022/10/18 04:19:22;;;;;;;;;;;;;;;;;;10457024;28;20318;-60
2022/10/18 04:24:24;;;;;;;;;;;;;;;;;;10457103;28;19974;-60
2022/10/18 04:29:26;;;;;;;;;;;;;;;;;;10456525;28;20260;-60
2022/10/18 04:34:28;;;;;;;;;;;;;;;;;;10457037;28;19924;-60
2022/10/18 04:39:30;;;;;;;;;;;;;;;;;;10456373;28;19932;-60
2022/10/18 04:44:33;;;;;;;;;;;;;;;;;;10456868;28;19971;-60
2022/10/18 04:49:35;;;;;;;;;;;;;;;;;;10455966;28;19994;-60
2022/10/18 04:54:37;;;;;;;;;;;;;;;;;;10458532;28;19975;-60
2022/10/18 04:59:39;;;;;;;;;;;;;;;;;;10464674;28;20012;-61
2022/10/18 05:04:41;;;;;;;;;;;;;;;;;;10464391;28;19978;-60
2022/10/18 05:09:43;;;;;;;;;;;;;;;;;;10463616;28;19994;-60
2022/10/18 05:14:45;;;;;;;;;;;;;;;;;;10463974;28;19925;-60
2022/10/18 05:19:47;;;;;;;;;;;;;;;;;;10463843;28;19939;-60
2022/10/18 05:24:49;;;;;;;;;;;;;;;;;;10463637;28;19982;-60
2022/10/18 05:29:51;;;;;;;;;;;;;;;;;;10462826;28;19991;-60
2022/10/18 05:34:53;;;;;;;;;;;;;;;;;;10463318;28;19951;-60
2022/10/18 05:39:55;;;;;;;;;;;;;;;;;;10463106;28;19971;-60
2022/10/18 05:44:57;;;;;;;;;;;;;;;;;;10462887;28;19924;-60
2022/10/18 05:49:59;;;;;;;;;;;;;;;;;;10461958;28;19929;-60
2022/10/18 05:55:01;;;;;;;;;;;;;;;;;;10461797;28;19929;-60
2022/10/18 06:00:03;;;;;;;;;;;;;;;;;;10444638;28;19928;-61
2022/10/18 06:05:06;;;;;;;;;;;;;;;;;;10461261;28;20380;-60
2022/10/18 06:10:08;;;;;;;;;;;;;;;;;;10461061;28;19924;-60
2022/10/18 06:15:10;;;;;;;;;;;;;;;;;;10461667;28;19929;-60
2022/10/18 06:20:12;;;;;;;;;;;;;;;;;;10460929;28;19974;-60
2022/10/18 06:25:14;;;;;;;;;;;;;;;;;;10460767;28;20375;-60
2022/10/18 06:30:16;;;;;;;;;;;;;;;;;;10461183;28;19978;-60
2022/10/18 06:35:18;;;;;;;;;;;;;;;;;;10460306;28;20445;-60
2022/10/18 06:40:20;;;;;;;;;;;;;;;;;;10460772;28;19928;-60
2022/10/18 06:45:22;;;;;;;;;;;;;;;;;;10460550;28;19925;-60
2022/10/18 06:50:24;;;;;;;;;;;;;;;;;;10459587;28;19925;-60
2022/10/18 06:55:26;;;;;;;;;;;;;;;;;;10459451;28;19992;-60
2022/10/18 07:00:28;;;;;;;;;;;;;;;;;;10456620;28;19943;-60
2022/10/18 07:05:30;;;;;;;;;;;;;;;;;;10456137;28;19932;-60
2022/10/18 07:10:37;;;;;;;;;;;;;;;;;;10457031;28;19943;-60
2022/10/18 07:15:39;;;;;;;;;;;;;;;;;;10470641;28;19928;-60
2022/10/18 07:20:41;;;;;;;;;;;;;;;;;;10454803;28;19940;-60
2022/10/18 07:25:43;;;;;;;;;;;;;;;;;;10453175;28;19971;-60
2022/10/18 07:30:45;;;;;;;;;;;;;;;;;;10456334;28;20384;-60
2022/10/18 07:35:47;;;;;;;;;;;;;;;;;;10463505;28;19924;-60
2022/10/18 07:40:49;;;;;;;;;;;;;;;;;;10459214;28;19924;-60
2022/10/18 07:45:52;;;;;;;;;;;;;;;;;;10458030;28;19975;-60
2022/10/18 07:50:54;;;;;;;;;;;;;;;;;;10458270;28;19925;-60
2022/10/18 07:55:56;;;;;;;;;;;;;;;;;;10457243;28;20371;-60
2022/10/18 08:00:58;;;;;;;;;;;;;;;;;;10457510;28;19924;-60
2022/10/18 08:06:00;;;;;;;;;;;;;;;;;;10457647;28;19933;-60
2022/10/18 08:11:02;;;;;;;;;;;;;;;;;;10457504;28;19925;-60
2022/10/18 08:16:04;;;;;;;;;;;;;;;;;;10456772;28;19924;-60
2022/10/18 08:21:06;;;;;;;;;;;;;;;;;;10457345;28;19990;-60
2022/10/18 08:26:08;;;;;;;;;;;;;;;;;;10457303;28;19928;-60
2022/10/18 08:31:10;;;;;;;;;;;;;;;;;;10460665;28;20295;-60
2022/10/18 08:36:12;;;;;;;;;;;;;;;;;;10465532;28;19979;-60
2022/10/18 08:41:14;;;;;;;;;;;;;;;;;;10465410;28;19925;-60
2022/10/18 08:46:16;;;;;;;;;;;;;;;;;;10464969;28;19955;-60
2022/10/18 08:51:18;;;;;;;;;;;;;;;;;;10464361;28;20441;-60
2022/10/18 08:56:23;;;;;;;;;;;;;;;;;;10464731;28;19928;-60
2022/10/18 09:01:25;;;;;;;;;;;;;;;;;;10464013;28;19925;-61
2022/10/18 09:06:27;;;;;;;;;;;;;;;;;;10464449;28;19932;-60
2022/10/18 09:11:29;;;;;;;;;;;;;;;;;;10463640;28;19951;-61
2022/10/18 09:16:31;;;;;;;;;;;;;;;;;;10463380;28;19928;-61
2022/10/18 09:21:33;;;;;;;;;;;;;;;;;;10463865;28;19925;-61
2022/10/18 09:26:35;;;;;;;;;;;;;;;;;;10462978;28;19925;-61
2022/10/18 09:31:37;;;;;;;;;;;;;;;;;;10463468;28;19925;-61
2022/10/18 09:36:39;;;;;;;;;;;;;;;;;;10463221;28;19925;-61
2022/10/18 09:41:41;;;;;;;;;;;;;;;;;;10462965;28;19924;-61
2022/10/18 09:46:44;;;;;;;;;;;;;;;;;;10462157;28;20343;-61
2022/10/18 09:51:46;;;;;;;;;;;;;;;;;;10462056;28;20361;-61
2022/10/18 09:56:48;;;;;;;;;;;;;;;;;;10462451;28;19924;-61
2022/10/18 10:01:50;;;;;;;;;;;;;;;;;;10461628;28;19929;-62
2022/10/18 10:06:52;;;;;;;;;;;;;;;;;;10462182;28;19925;-62
2022/10/18 10:11:54;;;;;;;;;;;;;;;;;;10461944;28;19925;-62
2022/10/18 10:16:56;;;;;;;;;;;;;;;;;;10461702;28;19979;-62
2022/10/18 10:21:58;;;;;;;;;;;;;;;;;;10456755;28;19929;-62
2022/10/18 10:27:00;;;;;;;;;;;;;;;;;;10420079;28;19929;-62
2022/10/18 10:32:02;;;;;;;;;;;;;;;;;;10419919;28;19925;-62
2022/10/18 10:37:06;;;;;;;;;;;;;;;;;;10453727;28;20338;-62
2022/10/18 10:42:08;;;;;;;;;;;;;;;;;;10494173;28;19925;-62
2022/10/18 10:47:12;;;;;;;;;;;;;;;;;;10460190;28;19924;-63
2022/10/18 10:52:14;;;;;;;;;;;;;;;;;;10472419;28;19924;-62
2022/10/18 10:57:28;;;;;;;;;;;;;;;;;;10477599;28;19925;-62
2022/10/18 11:02:30;;;;;;;;;;;;;;;;;;10459896;28;19925;-62
2022/10/18 11:07:32;;;;;;;;;;;;;;;;;;10458391;28;19924;-62
2022/10/18 11:12:34;;;;;;;;;;;;;;;;;;10458901;28;20334;-62
2022/10/18 11:17:36;;;;;;;;;;;;;;;;;;10459279;28;20012;-63
2022/10/18 11:22:38;;;;;;;;;;;;;;;;;;10458504;28;19975;-63
2022/10/18 11:27:40;;;;;;;;;;;;;;;;;;10458927;28;19929;-63
2022/10/18 11:32:42;;;;;;;;;;;;;;;;;;10458758;28;19925;-63
2022/10/18 11:37:45;;;;;;;;;;;;;;;;;;10457846;28;19925;-63
2022/10/18 11:42:47;;;;;;;;;;;;;;;;;;10457767;28;20376;-63
2022/10/18 11:47:49;;;;;;;;;;;;;;;;;;10457770;28;20051;-63
2022/10/18 11:52:54;;;;;;;;;;;;;;;;;;10457445;28;19931;-63
2022/10/18 11:57:56;;;;;;;;;;;;;;;;;;10457204;28;19925;-63
2022/10/18 12:02:58;;;;;;;;;;;;;;;;;;10457087;28;19990;-63
2022/10/18 12:08:00;;;;;;;;;;;;;;;;;;10456970;28;19928;-63
2022/10/18 12:13:03;;;;;;;;;;;;;;;;;;10457545;28;19924;-63
2022/10/18 12:18:05;;;;;;;;;;;;;;;;;;10457335;28;19928;-63
2022/10/18 12:23:07;;;;;;;;;;;;;;;;;;10457335;28;19924;-62
2022/10/18 12:28:09;;;;;;;;;;;;;;;;;;10457211;28;19951;-63
2022/10/18 12:33:11;;;;;;;;;;;;;;;;;;10457133;28;19929;-63
2022/10/18 12:38:29;;;;;;;;;;;;;;;;;;10456979;28;19924;-63
2022/10/18 12:43:35;;;;;;;;;;;;;;;;;;10456299;28;20341;-62
2022/10/18 12:48:44;;;;;;;;;;;;;;;;;;10456148;28;20043;-63
2022/10/18 12:53:46;;;;;;;;;;;;;;;;;;10456219;28;19983;-62
2022/10/18 12:58:48;;;;;;;;;;;;;;;;;;10456577;28;19929;-63
2022/10/18 13:03:50;;;;;;;;;;;;;;;;;;10497595;22;19924;-62
2022/10/18 13:08:52;;;;;;;;;;;;;;;;;;10498094;28;19928;-62
2022/10/18 13:13:54;;;;;;;;;;;;;;;;;;10497202;28;20397;-62
2022/10/18 13:18:57;;;;;;;;;;;;;;;;;;10503491;28;20424;-62
2022/10/18 13:23:59;;;;;;;;;;;;;;;;;;10505227;28;19974;-61
2022/10/18 13:29:01;;;;;;;;;;;;;;;;;;10505056;28;19974;-62
2022/10/18 13:34:03;;;;;;;;;;;;;;;;;;10504819;28;19934;-61
2022/10/18 13:39:05;;;;;;;;;;;;;;;;;;10504150;28;19936;-62
2022/10/18 13:44:07;;;;;;;;;;;;;;;;;;10503703;28;19928;-61
2022/10/18 13:49:09;;;;;;;;;;;;;;;;;;10504236;28;19929;-62
2022/10/18 13:54:12;;;;;;;;;;;;;;;;;;10503455;28;19925;-61
2022/10/18 13:59:14;;;;;;;;;;;;;;;;;;10503235;28;19925;-61
2022/10/18 14:04:16;;;;;;;;;;;;;;;;;;10502823;28;20309;-61
2022/10/18 14:09:19;;;;;;;;;;;;;;;;;;10503397;28;19978;-61
2022/10/18 14:14:35;;;;;;;;;;;;;;;;;;10503292;28;20011;-61
2022/10/18 14:19:37;;;;;;;;;;;;;;;;;;10503049;28;19925;-61
2022/10/18 14:24:39;;;;;;;;;;;;;;;;;;10502916;28;19971;-61
2022/10/18 14:29:41;;;;;;;;;;;;;;;;;;10501734;28;19928;-61
2022/10/18 14:34:43;;;;;;;;;;;;;;;;;;10501620;28;20326;-61
2022/10/18 14:39:45;;;;;;;;;;;;;;;;;;10501478;28;20379;-61
2022/10/18 14:44:50;;;;;;;;;;;;;;;;;;10501437;28;19931;-62
2022/10/18 14:49:56;;;;;;;;;;;;;;;;;;10484340;28;20372;-61
2022/10/18 14:54:58;;;;;;;;;;;;;;;;;;10500898;28;20421;-63
2022/10/18 15:00:01;;;;;;;;;;;;;;;;;;10501154;28;19928;-63
2022/10/18 15:05:04;;;;;;;;;;;;;;;;;;10500508;28;19928;-62
2022/10/18 15:10:06;;;;;;;;;;;;;;;;;;10500336;28;20308;-61
2022/10/18 15:15:08;;;;;;;;;;;;;;;;;;10500220;28;20509;-61
2022/10/18 15:20:10;;;;;;;;;;;;;;;;;;10500587;28;19925;-61
2022/10/18 15:25:15;;;;;;;;;;;;;;;;;;10499827;28;20434;-61
2022/10/18 15:30:17;;;;;;;;;;;;;;;;;;10499574;28;19985;-61
2022/10/18 15:35:19;;;;;;;;;;;;;;;;;;10499315;28;20283;-61
2022/10/18 15:40:26;;;;;;;;;;;;;;;;;;10492663;28;19970;-61
2022/10/18 15:45:30;;;;;;;;;;;;;;;;;;10495203;28;19924;-61
2022/10/18 15:50:32;;;;;;;;;;;;;;;;;;10498384;28;19928;-61
2022/10/18 15:55:34;;;;;;;;;;;;;;;;;;10498457;28;19970;-61
2022/10/18 16:00:36;;;;;;;;;;;;;;;;;;10497309;28;19928;-61
2022/10/18 16:05:38;;;;;;;;;;;;;;;;;;10498408;28;20325;-61
2022/10/18 16:10:40;;;;;;;;;;;;;;;;;;10496394;28;20310;-61
2022/10/18 16:15:42;;;;;;;;;;;;;;;;;;10498076;28;19970;-61
2022/10/18 16:20:44;;;;;;;;;;;;;;;;;;10498007;28;19928;-61
2022/10/18 16:25:46;;;;;;;;;;;;;;;;;;10498783;28;19924;-61
2022/10/18 16:30:49;;;;;;;;;;;;;;;;;;10497004;28;19925;-60
2022/10/18 16:35:51;;;;;;;;;;;;;;;;;;10515071;28;19970;-61
2022/10/18 16:40:53;;;;;;;;;;;;;;;;;;10514225;28;19982;-60
2022/10/18 16:45:58;;;;;;;;;;;;;;;;;;10498300;28;19950;-61
2022/10/18 16:51:00;;;;;;;;;;;;;;;;;;10499162;28;19924;-61
2022/10/18 16:56:02;;;;;;;;;;;;;;;;;;10542133;28;19924;-61
2022/10/18 17:01:04;;;;;;;;;;;;;;;;;;10547506;28;20340;-61
2022/10/18 17:06:09;;;;;;;;;;;;;;;;;;10547917;28;19924;-60
2022/10/18 17:11:11;;;;;;;;;;;;;;;;;;10499712;28;19924;-61
2022/10/18 17:16:13;;;;;;;;;;;;;;;;;;10503428;28;19928;-60
2022/10/18 17:21:15;;;;;;;;;;;;;;;;;;10505386;28;19971;-60
2022/10/18 17:26:17;;;;;;;;;;;;;;;;;;10504529;28;19928;-61
2022/10/18 17:31:29;;;;;;;;;;;;;;;;;;10504431;28;19924;-60
2022/10/18 17:36:31;;;;;;;;;;;;;;;;;;10504767;28;19974;-60
2022/10/18 17:41:33;;;;;;;;;;;;;;;;;;10504633;28;19924;-60
2022/10/18 17:46:35;;;;;;;;;;;;;;;;;;10501961;28;19924;-60
2022/10/18 17:51:37;;;;;;;;;;;;;;;;;;10522926;28;19986;-61
2022/10/18 17:56:40;;;;;;;;;;;;;;;;;;10503995;28;19978;-61
2022/10/18 18:01:42;;;;;;;;;;;;;;;;;;10501721;28;19995;-60
2022/10/18 18:06:44;;;;;;;;;;;;;;;;;;10502035;28;20329;-60
2022/10/18 18:11:47;;;;;;;;;;;;;;;;;;10502858;28;19924;-60
2022/10/18 18:16:49;;;;;;;;;;;;;;;;;;10503225;28;19924;-60
2022/10/18 18:21:53;;;;;;;;;;;;;;;;;;10502340;28;19978;-60
2022/10/18 18:26:55;;;;;;;;;;;;;;;;;;10500953;28;20264;-60
2022/10/18 18:31:58;;;;;;;;;;;;;;;;;;10514796;28;19925;-60
2022/10/18 18:37:00;;;;;;;;;;;;;;;;;;10502034;28;19924;-60
2022/10/18 18:42:02;;;;;;;;;;;;;;;;;;10532994;28;19925;-60
2022/10/18 18:47:05;;;;;;;;;;;;;;;;;;10483374;28;20241;-60
2022/10/18 18:52:13;;;;;;;;;;;;;;;;;;10501878;28;19951;-60
2022/10/18 18:57:15;;;;;;;;;;;;;;;;;;10501416;28;19924;-60
2022/10/18 19:02:17;;;;;;;;;;;;;;;;;;10500615;28;19925;-60
2022/10/18 19:07:19;;;;;;;;;;;;;;;;;;10500782;28;19990;-60
2022/10/18 19:12:21;;;;;;;;;;;;;;;;;;10500346;28;20371;-60
2022/10/18 19:17:23;;;;;;;;;;;;;;;;;;10499168;28;19970;-60
2022/10/18 19:22:25;;;;;;;;;;;;;;;;;;10514327;28;19932;-60
2022/10/18 19:27:27;;;;;;;;;;;;;;;;;;10512960;28;19994;-60
2022/10/18 19:32:30;;;;;;;;;;;;;;;;;;10491311;28;19924;-60
2022/10/18 19:37:32;;;;;;;;;;;;;;;;;;10496983;28;19978;-60
2022/10/18 19:42:35;;;;;;;;;;;;;;;;;;10497752;28;19955;-60
2022/10/18 19:47:40;;;;;;;;;;;;;;;;;;10498406;28;19924;-60
2022/10/18 19:52:42;;;;;;;;;;;;;;;;;;10498945;28;20375;-60
2022/10/18 19:57:44;;;;;;;;;;;;;;;;;;10499404;28;19928;-60
2022/10/18 20:02:46;;;;;;;;;;;;;;;;;;10496403;28;20359;-60
2022/10/18 20:07:48;;;;;;;;;;;;;;;;;;10492874;28;20322;-60
2022/10/18 20:12:50;;;;;;;;;;;;;;;;;;10496569;28;20375;-60
2022/10/18 20:17:52;;;;;;;;;;;;;;;;;;10499200;28;19924;-60
2022/10/18 20:22:54;;;;;;;;;;;;;;;;;;10495607;28;19929;-60
2022/10/18 20:27:56;;;;;;;;;;;;;;;;;;10495271;28;20437;-60
2022/10/18 20:32:58;;;;;;;;;;;;;;;;;;10497087;28;19924;-60
2022/10/18 20:38:00;;;;;;;;;;;;;;;;;;10496864;28;19925;-60
2022/10/18 20:43:02;;;;;;;;;;;;;;;;;;10495892;28;19951;-60
2022/10/18 20:48:04;;;;;;;;;;;;;;;;;;10492992;28;19929;-60
2022/10/18 20:53:07;;;;;;;;;;;;;;;;;;10493438;28;19925;-60
2022/10/18 20:58:09;;;;;;;;;;;;;;;;;;10479673;28;19925;-60
2022/10/18 21:03:11;;;;;;;;;;;;;;;;;;10493667;28;20425;-60
2022/10/18 21:08:18;;;;;;;;;;;;;;;;;;10491633;28;19950;-60
2022/10/18 21:13:20;;;;;;;;;;;;;;;;;;10492189;28;19925;-60
2022/10/18 21:18:22;;;;;;;;;;;;;;;;;;10490901;28;19932;-60
2022/10/18 21:23:24;;;;;;;;;;;;;;;;;;10496020;28;20307;-60
2022/10/18 21:28:26;;;;;;;;;;;;;;;;;;10495495;28;19928;-60
2022/10/18 21:33:28;;;;;;;;;;;;;;;;;;10496725;28;20401;-60
2022/10/18 21:38:30;;;;;;;;;;;;;;;;;;10499459;28;19925;-60
2022/10/18 21:43:32;;;;;;;;;;;;;;;;;;10503627;28;19924;-60
2022/10/18 21:48:34;;;;;;;;;;;;;;;;;;10504385;28;19928;-60
2022/10/18 21:53:36;;;;;;;;;;;;;;;;;;10486458;28;19928;-60
2022/10/18 21:58:38;;;;;;;;;;;;;;;;;;10502181;28;19924;-60
2022/10/18 22:03:40;;;;;;;;;;;;;;;;;;10502412;28;19928;-60
2022/10/18 22:08:42;;;;;;;;;;;;;;;;;;10502045;28;20349;-60
2022/10/18 22:13:44;;;;;;;;;;;;;;;;;;10503203;28;19928;-60
2022/10/18 22:18:47;;;;;;;;;;;;;;;;;;10500834;28;19974;-60
2022/10/18 22:23:49;;;;;;;;;;;;;;;;;;10502337;28;19924;-60
2022/10/18 22:28:51;;;;;;;;;;;;;;;;;;10499992;28;19929;-60
2022/10/18 22:33:53;;;;;;;;;;;;;;;;;;10499747;28;19948;-60
2022/10/18 22:38:55;;;;;;;;;;;;;;;;;;10501749;28;19932;-60
2022/10/18 22:43:57;;;;;;;;;;;;;;;;;;10500336;28;19978;-60
2022/10/18 22:49:02;;;;;;;;;;;;;;;;;;10500296;28;19928;-60
2022/10/18 22:54:04;;;;;;;;;;;;;;;;;;10501809;28;19970;-60
2022/10/18 22:59:06;;;;;;;;;;;;;;;;;;10499988;28;19978;-60
2022/10/18 23:04:08;;;;;;;;;;;;;;;;;;10499866;28;19925;-61
2022/10/18 23:09:10;;;;;;;;;;;;;;;;;;10500381;28;20425;-60
2022/10/18 23:14:12;;;;;;;;;;;;;;;;;;10500223;28;20379;-60
2022/10/18 23:19:14;;;;;;;;;;;;;;;;;;10499105;28;19924;-60
2022/10/18 23:24:16;;;;;;;;;;;;;;;;;;10499243;28;19994;-60
2022/10/18 23:29:18;;;;;;;;;;;;;;;;;;10499474;28;19925;-60
2022/10/18 23:34:20;;;;;;;;;;;;;;;;;;10499548;28;20375;-60
2022/10/18 23:39:23;;;;;;;;;;;;;;;;;;10499917;28;19929;-60
2022/10/18 23:44:25;;;;;;;;;;;;;;;;;;10498972;28;19928;-60
2022/10/18 23:49:27;;;;;;;;;;;;;;;;;;10498902;28;20264;-60
2022/10/18 23:54:29;;;;;;;;;;;;;;;;;;10498528;28;19928;-60
2022/10/18 23:59:31;;;;;;;;;;;;;;;;;;10498466;28;20430;-60
